Time;durP1;ratioP1;P1;durP2;ratioP2;P2;SDS_P1;SDS_P2;PMS_P1;PMS_P2;Temp;Humidity;BMP_temperature;BMP_pressure;BME280_temperature;BME280_humidity;BME280_pressure;Samples;Min_cycle;Max_cycle;Signal;HPM_P1;HPM_P2
2022/07/09 00:00:39;;;;;;;6.95;4.10;;;17.60;99.90;;;;;;5067327;28;20104;-65
2022/07/09 00:03:04;;;;;;;5.65;4.20;;;17.60;99.90;;;;;;5068314;28;20044;-66
2022/07/09 00:05:30;;;;;;;7.70;4.65;;;17.50;99.90;;;;;;5068493;28;20056;-65
2022/07/09 00:07:56;;;;;;;9.23;4.47;;;17.50;99.90;;;;;;5067273;28;20079;-65
2022/07/09 00:10:21;;;;;;;8.60;4.25;;;17.50;99.90;;;;;;5068463;28;20079;-65
2022/07/09 00:12:47;;;;;;;8.30;4.13;;;17.50;99.90;;;;;;5068846;28;20128;-64
2022/07/09 00:15:13;;;;;;;9.57;5.50;;;17.40;99.90;;;;;;5068123;28;20087;-65
2022/07/09 00:17:39;;;;;;;9.60;4.70;;;17.40;99.90;;;;;;5068309;28;20048;-65
2022/07/09 00:20:05;;;;;;;10.32;4.68;;;17.40;99.90;;;;;;5067322;28;20392;-66
2022/07/09 00:22:31;;;;;;;5.80;4.28;;;17.30;99.90;;;;;;5067851;28;20084;-65
2022/07/09 00:24:58;;;;;;;8.77;4.80;;;17.40;99.90;;;;;;5068163;28;20040;-65
2022/07/09 00:27:24;;;;;;;9.60;4.32;;;17.30;99.90;;;;;;5067652;28;20036;-65
2022/07/09 00:29:49;;;;;;;8.45;4.47;;;17.30;99.90;;;;;;5067612;28;20398;-66
2022/07/09 00:32:15;;;;;;;7.32;4.18;;;17.60;99.90;;;;;;5067547;28;20055;-66
2022/07/09 00:34:40;;;;;;;9.27;5.15;;;17.30;99.90;;;;;;5066064;28;20079;-65
2022/07/09 00:37:06;;;;;;;4.45;4.00;;;17.30;99.90;;;;;;5067410;28;20067;-65
2022/07/09 00:39:32;;;;;;;8.30;4.15;;;17.30;99.90;;;;;;5067990;28;20466;-65
2022/07/09 00:42:07;;;;;;;10.25;4.55;;;17.30;99.90;;;;;;5066838;28;20044;-65
2022/07/09 00:44:33;;;;;;;9.55;5.28;;;17.30;99.90;;;;;;5067518;28;20045;-64
2022/07/09 00:46:59;;;;;;;11.60;5.25;;;17.30;99.90;;;;;;5067564;28;20193;-65
2022/07/09 00:49:27;;;;;;;6.20;4.78;;;17.30;99.90;;;;;;5065687;28;20062;-66
2022/07/09 00:51:54;;;;;;;12.77;4.68;;;17.30;99.90;;;;;;5066280;28;20049;-65
2022/07/09 00:54:20;;;;;;;6.95;4.50;;;17.40;99.90;;;;;;5067715;28;20048;-66
2022/07/09 00:56:47;;;;;;;9.90;5.25;;;17.30;99.90;;;;;;5067707;28;20053;-65
2022/07/09 00:59:13;;;;;;;9.40;4.93;;;17.40;99.90;;;;;;5068264;28;20051;-66
2022/07/09 01:01:42;;;;;;;8.65;4.22;;;17.40;99.90;;;;;;5067381;28;20097;-65
2022/07/09 01:04:08;;;;;;;9.50;4.85;;;17.40;99.90;;;;;;5066368;28;20053;-65
2022/07/09 01:06:34;;;;;;;5.88;4.28;;;17.40;99.90;;;;;;5067396;28;20124;-66
2022/07/09 01:09:03;;;;;;;9.80;4.88;;;17.40;99.90;;;;;;5065713;28;20048;-65
2022/07/09 01:11:30;;;;;;;8.15;4.93;;;17.40;99.90;;;;;;5065224;28;20487;-66
2022/07/09 01:13:55;;;;;;;5.95;4.18;;;17.30;99.90;;;;;;5067371;28;20062;-65
2022/07/09 01:16:22;;;;;;;8.38;4.50;;;17.30;99.90;;;;;;5066631;28;20044;-65
2022/07/09 01:18:48;;;;;;;7.70;4.20;;;17.30;99.90;;;;;;5065277;28;20055;-66
2022/07/09 01:21:14;;;;;;;8.13;4.18;;;17.30;99.90;;;;;;5067786;28;20310;-65
2022/07/09 01:23:40;;;;;;;11.23;5.18;;;17.40;99.90;;;;;;5064991;28;20509;-66
2022/07/09 01:26:06;;;;;;;11.43;5.25;;;17.40;99.90;;;;;;5065535;28;20389;-65
2022/07/09 01:28:32;;;;;;;8.70;4.70;;;17.40;99.90;;;;;;5066874;28;20041;-65
2022/07/09 01:30:57;;;;;;;10.18;4.55;;;17.40;99.90;;;;;;5065531;28;20048;-65
2022/07/09 01:33:24;;;;;;;7.88;4.63;;;17.40;99.90;;;;;;5066750;28;20470;-65
2022/07/09 01:35:49;;;;;;;4.75;4.35;;;17.40;99.90;;;;;;5066596;28;20056;-65
2022/07/09 01:38:15;;;;;;;9.57;4.97;;;17.40;99.90;;;;;;5065333;28;20077;-66
2022/07/09 01:40:41;;;;;;;12.05;5.53;;;17.30;99.90;;;;;;5066859;28;20178;-65
2022/07/09 01:43:06;;;;;;;10.05;5.07;;;17.30;99.90;;;;;;5066281;28;20033;-65
2022/07/09 01:45:32;;;;;;;9.05;4.70;;;17.40;99.90;;;;;;5065874;28;20039;-65
2022/07/09 01:47:57;;;;;;;8.52;4.63;;;17.30;99.90;;;;;;5066202;28;20044;-66
2022/07/09 01:50:23;;;;;;;11.38;5.38;;;17.30;99.90;;;;;;5066724;28;20041;-65
2022/07/09 01:52:50;;;;;;;7.82;4.13;;;17.30;99.90;;;;;;5065611;28;20051;-65
2022/07/09 01:55:15;;;;;;;12.50;5.03;;;17.30;99.90;;;;;;5067297;28;20056;-66
2022/07/09 01:57:41;;;;;;;8.35;3.85;;;17.30;99.90;;;;;;5066418;28;20087;-65
2022/07/09 02:00:07;;;;;;;10.15;5.18;;;17.30;99.90;;;;;;5065263;28;20774;-65
2022/07/09 02:02:33;;;;;;;9.05;4.10;;;17.30;99.90;;;;;;5063988;28;20369;-65
2022/07/09 02:04:59;;;;;;;8.55;4.38;;;17.30;99.90;;;;;;5065177;28;20131;-65
2022/07/09 02:07:25;;;;;;;7.70;4.55;;;17.30;99.90;;;;;;5063547;28;20079;-66
2022/07/09 02:09:51;;;;;;;8.23;4.30;;;17.30;99.90;;;;;;5065190;28;20047;-66
2022/07/09 02:12:18;;;;;;;8.30;4.70;;;17.30;99.90;;;;;;5066168;28;20097;-66
2022/07/09 02:14:44;;;;;;;10.30;4.32;;;17.30;99.90;;;;;;5065528;28;20051;-65
2022/07/09 02:17:10;;;;;;;14.68;4.45;;;17.30;99.90;;;;;;5066199;28;20570;-66
2022/07/09 02:19:36;;;;;;;8.93;4.13;;;17.30;99.90;;;;;;5067126;28;20136;-65
2022/07/09 02:22:01;;;;;;;7.38;4.63;;;17.30;99.90;;;;;;5066251;28;20111;-65
2022/07/09 02:24:28;;;;;;;7.20;4.30;;;17.30;99.90;;;;;;5067070;28;20046;-66
2022/07/09 02:26:54;;;;;;;7.53;3.80;;;17.30;99.90;;;;;;5065562;28;20037;-66
2022/07/09 02:29:19;;;;;;;9.90;4.10;;;17.30;99.90;;;;;;5063656;28;20052;-65
2022/07/09 02:31:45;;;;;;;6.40;4.63;;;17.30;99.90;;;;;;5065628;28;20090;-66
2022/07/09 02:34:11;;;;;;;9.15;4.10;;;17.40;99.90;;;;;;5063215;28;20052;-65
2022/07/09 02:36:36;;;;;;;6.72;3.33;;;17.30;99.90;;;;;;5065099;28;20049;-66
2022/07/09 02:39:02;;;;;;;8.77;4.50;;;17.30;99.90;;;;;;5064863;28;20506;-65
2022/07/09 02:41:28;;;;;;;9.98;4.20;;;17.30;99.90;;;;;;5064283;28;20051;-65
2022/07/09 02:43:53;;;;;;;5.78;3.88;;;17.30;99.90;;;;;;5063181;28;20082;-65
2022/07/09 02:46:19;;;;;;;6.68;4.03;;;17.20;99.90;;;;;;5063952;28;20507;-66
2022/07/09 02:48:44;;;;;;;7.68;4.25;;;17.20;99.90;;;;;;5065069;28;20491;-65
2022/07/09 02:51:10;;;;;;;6.90;3.25;;;17.20;99.90;;;;;;5064699;28;20145;-65
2022/07/09 02:53:35;;;;;;;4.53;3.67;;;17.20;99.90;;;;;;5064929;28;20052;-66
2022/07/09 02:56:01;;;;;;;5.88;3.63;;;17.20;99.90;;;;;;5062460;28;20044;-65
2022/07/09 02:58:27;;;;;;;6.10;3.60;;;17.20;99.90;;;;;;5064962;28;20032;-65
2022/07/09 03:00:53;;;;;;;9.60;3.95;;;17.10;99.90;;;;;;5028687;28;1035301;-65
2022/07/09 03:03:19;;;;;;;8.00;3.75;;;17.10;99.90;;;;;;5065001;28;20292;-66
2022/07/09 03:05:44;;;;;;;7.00;4.20;;;17.00;99.90;;;;;;5066312;28;20110;-65
2022/07/09 03:08:10;;;;;;;6.53;3.72;;;17.00;99.90;;;;;;5065256;28;20076;-66
2022/07/09 03:10:35;;;;;;;8.15;4.13;;;17.10;99.90;;;;;;5063433;28;20059;-66
2022/07/09 03:13:01;;;;;;;7.93;3.15;;;17.10;99.90;;;;;;5065495;28;20052;-65
2022/07/09 03:15:27;;;;;;;9.13;4.10;;;17.00;99.90;;;;;;5065262;28;20053;-66
2022/07/09 03:17:52;;;;;;;7.97;4.85;;;17.00;99.90;;;;;;5064292;28;20399;-65
2022/07/09 03:20:18;;;;;;;7.57;3.58;;;17.00;99.90;;;;;;5065658;28;20127;-66
2022/07/09 03:22:43;;;;;;;7.43;4.35;;;16.90;99.90;;;;;;5065796;28;20105;-66
2022/07/09 03:25:09;;;;;;;7.20;3.67;;;16.90;99.90;;;;;;5063393;28;20052;-65
2022/07/09 03:27:35;;;;;;;13.27;4.53;;;16.80;99.90;;;;;;5065321;28;20487;-65
2022/07/09 03:30:02;;;;;;;9.25;4.30;;;16.80;99.90;;;;;;5064308;28;20466;-66
2022/07/09 03:32:28;;;;;;;8.75;3.90;;;16.80;99.90;;;;;;5065329;28;20388;-65
2022/07/09 03:34:53;;;;;;;8.02;3.53;;;16.90;99.90;;;;;;5064789;28;20055;-65
2022/07/09 03:37:20;;;;;;;6.85;3.80;;;16.80;99.90;;;;;;5063242;28;20044;-65
2022/07/09 03:39:46;;;;;;;5.65;4.10;;;16.70;99.90;;;;;;5065953;28;20070;-65
2022/07/09 03:42:12;;;;;;;5.97;3.90;;;16.70;99.90;;;;;;5065366;28;20090;-65
2022/07/09 03:44:38;;;;;;;4.78;3.70;;;16.90;99.90;;;;;;5064221;28;20713;-65
2022/07/09 03:47:04;;;;;;;5.63;3.25;;;16.70;99.90;;;;;;5065108;28;20169;-65
2022/07/09 03:49:30;;;;;;;7.32;4.25;;;16.70;99.90;;;;;;5065184;28;20052;-66
2022/07/09 03:51:55;;;;;;;14.90;4.65;;;16.70;99.90;;;;;;5064097;28;20045;-65
2022/07/09 03:54:21;;;;;;;5.15;3.92;;;16.70;99.90;;;;;;5065240;28;20492;-65
2022/07/09 03:56:46;;;;;;;8.88;4.20;;;16.70;99.90;;;;;;5068973;28;20317;-66
2022/07/09 03:59:12;;;;;;;7.53;3.65;;;16.70;99.90;;;;;;5067671;28;20142;-66
2022/07/09 04:01:38;;;;;;;10.70;4.55;;;16.70;99.90;;;;;;5068121;28;20065;-66
2022/07/09 04:04:04;;;;;;;6.75;4.07;;;16.70;99.90;;;;;;5068410;28;20036;-66
2022/07/09 04:06:31;;;;;;;10.10;4.47;;;16.70;99.90;;;;;;5066520;28;20564;-65
2022/07/09 04:08:56;;;;;;;9.48;4.40;;;16.60;99.90;;;;;;5068170;28;20041;-65
2022/07/09 04:11:22;;;;;;;8.93;4.32;;;16.70;99.90;;;;;;5068316;28;20040;-65
2022/07/09 04:13:48;;;;;;;5.68;4.05;;;16.60;99.90;;;;;;5067883;28;20043;-65
2022/07/09 04:16:15;;;;;;;6.13;4.13;;;16.60;99.90;;;;;;5069040;28;20048;-65
2022/07/09 04:18:43;;;;;;;6.80;3.75;;;16.70;99.90;;;;;;5068391;28;20396;-65
2022/07/09 04:21:09;;;;;;;6.90;4.07;;;16.70;99.90;;;;;;5067232;28;20139;-66
2022/07/09 04:23:35;;;;;;;5.25;3.72;;;16.60;99.90;;;;;;5068299;28;20041;-66
2022/07/09 04:26:01;;;;;;;9.32;3.63;;;16.60;99.90;;;;;;5067771;28;20051;-65
2022/07/09 04:28:26;;;;;;;8.45;4.43;;;16.60;99.90;;;;;;5067419;28;20499;-66
2022/07/09 04:30:52;;;;;;;8.40;4.32;;;16.70;99.90;;;;;;5067981;28;20041;-65
2022/07/09 04:33:18;;;;;;;6.13;3.72;;;16.70;99.90;;;;;;5066564;28;20059;-66
2022/07/09 04:35:44;;;;;;;4.60;3.78;;;16.70;99.90;;;;;;5068723;28;20051;-66
2022/07/09 04:38:12;;;;;;;6.70;4.15;;;16.70;99.90;;;;;;5067674;28;20055;-65
2022/07/09 04:40:38;;;;;;;10.70;4.25;;;16.70;99.90;;;;;;5067011;28;20479;-65
2022/07/09 04:43:04;;;;;;;4.90;3.78;;;16.70;99.90;;;;;;5067632;28;20053;-65
2022/07/09 04:45:30;;;;;;;5.68;3.45;;;16.80;99.90;;;;;;5067995;28;20491;-66
2022/07/09 04:47:57;;;;;;;6.07;4.13;;;16.80;99.90;;;;;;5066729;28;20128;-65
2022/07/09 04:50:23;;;;;;;6.88;3.60;;;16.80;99.90;;;;;;5067772;28;20079;-66
2022/07/09 04:52:48;;;;;;;5.03;3.42;;;16.80;99.90;;;;;;5067338;28;20499;-66
2022/07/09 04:55:15;;;;;;;7.25;3.75;;;16.90;99.90;;;;;;5066070;28;20048;-65
2022/07/09 04:57:41;;;;;;;5.20;3.45;;;16.90;99.90;;;;;;5067182;28;20040;-66
2022/07/09 05:00:07;;;;;;;5.32;3.65;;;16.90;99.90;;;;;;5067227;28;20315;-66
2022/07/09 05:02:32;;;;;;;6.68;4.13;;;16.90;99.90;;;;;;5066924;28;20037;-65
2022/07/09 05:04:58;;;;;;;10.77;3.97;;;16.90;99.90;;;;;;5067539;28;20071;-65
2022/07/09 05:07:24;;;;;;;9.13;3.80;;;17.00;99.90;;;;;;5066215;28;20051;-66
2022/07/09 05:09:49;;;;;;;9.20;4.05;;;17.00;99.90;;;;;;5065004;28;20434;-66
2022/07/09 05:12:15;;;;;;;7.20;3.83;;;17.00;99.90;;;;;;5068225;28;20517;-66
2022/07/09 05:14:40;;;;;;;10.27;3.58;;;17.00;99.90;;;;;;5067198;28;20044;-65
2022/07/09 05:17:06;;;;;;;8.05;3.17;;;17.00;99.90;;;;;;5064833;28;20131;-65
2022/07/09 05:19:32;;;;;;;9.35;3.90;;;17.10;99.90;;;;;;5066948;28;20040;-66
2022/07/09 05:21:57;;;;;;;10.10;3.65;;;17.10;99.90;;;;;;5066868;28;20119;-65
2022/07/09 05:24:23;;;;;;;6.95;3.97;;;17.10;99.90;;;;;;5066458;28;20040;-66
2022/07/09 05:26:49;;;;;;;8.50;3.80;;;17.20;99.90;;;;;;5066652;28;20056;-65
2022/07/09 05:29:16;;;;;;;6.82;4.13;;;17.20;99.90;;;;;;5067565;28;20070;-66
2022/07/09 05:31:42;;;;;;;6.85;3.75;;;17.20;99.90;;;;;;5066315;28;20048;-65
2022/07/09 05:34:07;;;;;;;7.32;3.65;;;17.30;99.90;;;;;;5066687;28;20446;-66
2022/07/09 05:36:33;;;;;;;6.07;4.03;;;17.50;99.90;;;;;;5066478;28;20545;-65
2022/07/09 05:39:00;;;;;;;6.57;3.88;;;17.30;99.90;;;;;;5065935;28;20044;-66
2022/07/09 05:41:26;;;;;;;6.72;2.50;;;17.30;99.90;;;;;;5066679;28;20346;-66
2022/07/09 05:43:53;;;;;;;4.55;3.45;;;17.40;99.90;;;;;;5065552;28;20047;-66
2022/07/09 05:46:18;;;;;;;4.85;2.90;;;17.40;99.90;;;;;;5066569;28;20053;-66
2022/07/09 05:48:44;;;;;;;5.25;3.05;;;17.30;99.90;;;;;;5066891;28;20064;-66
2022/07/09 05:51:09;;;;;;;5.28;3.58;;;17.50;99.90;;;;;;5065567;28;20166;-65
2022/07/09 05:53:35;;;;;;;10.15;3.55;;;17.40;99.90;;;;;;5066478;28;20617;-66
2022/07/09 05:56:00;;;;;;;5.43;3.33;;;17.40;99.90;;;;;;5064626;28;20097;-66
2022/07/09 05:58:26;;;;;;;8.05;3.55;;;17.50;99.90;;;;;;5065571;28;20041;-66
2022/07/09 06:00:52;;;;;;;6.00;3.17;;;17.40;99.90;;;;;;5065886;28;20067;-65
2022/07/09 06:03:18;;;;;;;5.75;3.38;;;17.50;99.90;;;;;;5065547;28;20055;-65
2022/07/09 06:05:44;;;;;;;5.90;3.10;;;17.50;99.90;;;;;;5066515;28;20041;-65
2022/07/09 06:08:09;;;;;;;5.80;3.10;;;17.60;99.90;;;;;;5065600;28;20040;-66
2022/07/09 06:10:35;;;;;;;4.35;2.92;;;17.50;99.90;;;;;;5066060;28;20043;-66
2022/07/09 06:13:01;;;;;;;5.28;3.35;;;17.50;99.90;;;;;;5065383;28;20087;-66
2022/07/09 06:15:27;;;;;;;5.03;2.95;;;17.60;99.90;;;;;;5066117;28;20079;-66
2022/07/09 06:17:52;;;;;;;6.80;3.00;;;17.60;99.90;;;;;;5065599;28;20442;-66
2022/07/09 06:20:18;;;;;;;8.13;2.83;;;17.60;99.90;;;;;;5065422;28;20078;-66
2022/07/09 06:22:44;;;;;;;6.05;2.70;;;17.60;99.90;;;;;;5066393;28;20154;-66
2022/07/09 06:25:09;;;;;;;10.45;3.63;;;17.60;99.90;;;;;;5066028;28;20052;-66
2022/07/09 06:27:35;;;;;;;5.43;2.92;;;17.70;99.90;;;;;;5064065;28;20123;-65
2022/07/09 06:30:01;;;;;;;5.97;2.70;;;17.70;99.90;;;;;;5065461;28;20530;-65
2022/07/09 06:32:27;;;;;;;5.97;2.45;;;17.70;99.90;;;;;;5066178;28;20120;-66
2022/07/09 06:34:53;;;;;;;5.43;2.58;;;17.80;99.90;;;;;;5063188;28;20147;-65
2022/07/09 06:37:18;;;;;;;8.80;2.65;;;17.80;99.90;;;;;;5065860;28;20040;-66
2022/07/09 06:39:44;;;;;;;8.38;2.83;;;17.80;99.90;;;;;;5065119;28;20056;-65
2022/07/09 06:42:10;;;;;;;7.63;2.38;;;17.90;99.90;;;;;;5064772;28;20044;-66
2022/07/09 06:44:36;;;;;;;5.93;2.10;;;17.90;99.90;;;;;;5065795;28;20045;-66
2022/07/09 06:47:03;;;;;;;4.07;2.30;;;18.00;99.90;;;;;;5064913;28;20055;-66
2022/07/09 06:49:28;;;;;;;7.57;1.90;;;17.90;99.90;;;;;;5065929;28;20041;-66
2022/07/09 06:51:54;;;;;;;5.25;2.05;;;17.90;99.90;;;;;;5065479;28;20056;-66
2022/07/09 06:54:20;;;;;;;4.78;1.60;;;17.90;99.90;;;;;;5064569;28;20048;-66
2022/07/09 06:56:46;;;;;;;3.65;1.83;;;17.90;99.90;;;;;;5065920;28;20140;-66
2022/07/09 06:59:12;;;;;;;5.97;1.60;;;18.00;99.90;;;;;;5066077;28;20068;-66
2022/07/09 07:01:38;;;;;;;5.10;1.98;;;18.00;99.90;;;;;;5064880;28;20141;-66
2022/07/09 07:04:04;;;;;;;3.03;1.58;;;18.10;99.90;;;;;;5065325;28;20496;-65
2022/07/09 07:06:29;;;;;;;5.78;1.92;;;18.10;99.90;;;;;;5065483;28;20054;-66
2022/07/09 07:08:55;;;;;;;9.75;1.77;;;18.10;99.90;;;;;;5064603;28;20045;-65
2022/07/09 07:11:20;;;;;;;4.78;1.58;;;18.10;99.90;;;;;;5065577;28;20053;-66
2022/07/09 07:13:46;;;;;;;4.55;2.13;;;18.10;99.90;;;;;;5065814;28;20090;-65
2022/07/09 07:16:12;;;;;;;4.38;1.55;;;18.20;99.90;;;;;;5064822;28;20048;-66
2022/07/09 07:18:37;;;;;;;2.58;1.48;;;18.20;99.90;;;;;;5064363;28;20290;-66
2022/07/09 07:21:03;;;;;;;6.82;2.00;;;18.30;99.90;;;;;;5064938;28;20036;-66
2022/07/09 07:23:31;;;;;;;7.45;2.05;;;18.30;99.90;;;;;;5064549;28;20421;-66
2022/07/09 07:25:57;;;;;;;5.95;1.70;;;18.40;99.90;;;;;;5065004;28;20517;-65
2022/07/09 07:28:23;;;;;;;4.43;1.70;;;18.30;99.90;;;;;;5065677;28;20487;-66
2022/07/09 07:30:49;;;;;;;3.92;1.10;;;18.30;99.90;;;;;;5066473;28;20063;-66
2022/07/09 07:33:15;;;;;;;5.70;1.65;;;18.30;99.90;;;;;;5069714;28;20449;-66
2022/07/09 07:35:40;;;;;;;7.22;1.75;;;18.40;99.90;;;;;;5068828;28;20415;-65
2022/07/09 07:38:06;;;;;;;4.80;1.65;;;18.50;99.90;;;;;;5068198;28;20104;-65
2022/07/09 07:40:31;;;;;;;4.32;1.35;;;18.60;99.90;;;;;;5069189;28;20515;-66
2022/07/09 07:42:57;;;;;;;6.25;1.77;;;18.80;99.90;;;;;;5068676;28;20397;-66
2022/07/09 07:45:23;;;;;;;3.83;1.23;;;18.70;99.90;;;;;;5068041;28;20044;-66
2022/07/09 07:47:48;;;;;;;4.95;1.42;;;18.70;99.90;;;;;;5068660;28;20036;-66
2022/07/09 07:50:14;;;;;;;3.92;2.08;;;18.80;99.90;;;;;;5068748;28;20051;-66
2022/07/09 07:52:39;;;;;;;3.10;1.30;;;18.60;99.90;;;;;;5068631;28;20106;-65
2022/07/09 07:55:05;;;;;;;4.47;1.65;;;18.70;99.90;;;;;;5068238;28;20050;-65
2022/07/09 07:57:31;;;;;;;3.58;1.38;;;18.70;99.90;;;;;;5068058;28;20084;-66
2022/07/09 07:59:57;;;;;;;4.35;1.70;;;18.70;99.90;;;;;;5068135;28;20135;-66
2022/07/09 08:02:22;;;;;;;4.55;1.73;;;18.60;99.90;;;;;;5068616;28;20051;-65
2022/07/09 08:04:48;;;;;;;3.60;1.42;;;18.70;99.90;;;;;;5066196;28;20049;-65
2022/07/09 08:07:13;;;;;;;7.18;1.52;;;18.70;99.90;;;;;;5069435;28;20075;-65
2022/07/09 08:09:39;;;;;;;4.00;1.52;;;18.70;99.90;;;;;;5068501;28;20491;-65
2022/07/09 08:12:05;;;;;;;8.48;1.92;;;18.80;99.90;;;;;;5067651;28;20075;-66
2022/07/09 08:14:31;;;;;;;4.55;1.45;;;18.90;99.90;;;;;;5068457;28;20051;-66
2022/07/09 08:16:56;;;;;;;3.97;1.55;;;19.00;99.90;;;;;;5068113;28;20045;-66
2022/07/09 08:19:22;;;;;;;9.05;1.88;;;19.00;99.90;;;;;;5067522;28;20041;-66
2022/07/09 08:21:48;;;;;;;5.05;1.80;;;19.00;99.90;;;;;;5067853;28;20502;-65
2022/07/09 08:24:13;;;;;;;6.40;2.00;;;19.00;99.90;;;;;;5068731;28;20403;-65
2022/07/09 08:26:39;;;;;;;7.95;1.77;;;19.00;99.90;;;;;;5067362;28;20202;-65
2022/07/09 08:29:04;;;;;;;3.00;1.55;;;19.00;99.90;;;;;;5067998;28;20175;-65
2022/07/09 08:31:30;;;;;;;5.10;1.42;;;19.10;99.90;;;;;;5066686;28;20297;-65
2022/07/09 08:33:55;;;;;;;4.95;1.77;;;19.10;99.90;;;;;;5066888;28;20048;-66
2022/07/09 08:36:21;;;;;;;5.22;1.52;;;19.20;99.90;;;;;;5066694;28;20048;-65
2022/07/09 08:38:49;;;;;;;6.25;2.15;;;19.30;99.90;;;;;;5068143;28;20059;-66
2022/07/09 08:41:19;;;;;;;8.98;1.85;;;19.40;99.90;;;;;;5067834;28;20044;-66
2022/07/09 08:43:51;;;;;;;4.47;1.20;;;19.60;99.90;;;;;;5068265;28;20051;-66
2022/07/09 08:46:18;;;;;;;5.85;1.27;;;19.70;99.90;;;;;;5068281;28;20522;-66
2022/07/09 08:48:44;;;;;;;3.72;1.30;;;19.60;99.90;;;;;;5067938;28;20044;-65
2022/07/09 08:51:10;;;;;;;6.32;1.42;;;19.70;99.90;;;;;;5067523;28;20060;-66
2022/07/09 08:53:44;;;;;;;5.05;1.70;;;19.70;99.90;;;;;;5067038;28;20048;-66
2022/07/09 08:56:10;;;;;;;2.90;1.15;;;19.80;99.90;;;;;;5067315;28;20127;-65
2022/07/09 08:58:37;;;;;;;5.88;1.42;;;19.80;99.90;;;;;;5067342;28;20049;-65
2022/07/09 09:01:04;;;;;;;4.78;2.00;;;19.80;99.90;;;;;;5066384;28;20457;-65
2022/07/09 09:03:30;;;;;;;2.70;1.23;;;19.90;99.90;;;;;;5066154;28;20494;-64
2022/07/09 09:06:03;;;;;;;7.88;1.58;;;20.00;99.90;;;;;;5067093;28;20043;-63
2022/07/09 09:08:34;;;;;;;6.03;1.83;;;19.80;99.90;;;;;;5066544;28;20054;-63
2022/07/09 09:11:00;;;;;;;6.88;1.55;;;19.80;99.90;;;;;;5065803;28;20052;-63
2022/07/09 09:13:26;;;;;;;5.15;1.58;;;19.80;99.90;;;;;;5067399;28;20403;-63
2022/07/09 09:16:04;;;;;;;3.45;1.58;;;19.80;99.90;;;;;;5064706;28;20052;-63
2022/07/09 09:18:29;;;;;;;5.95;1.10;;;19.90;99.90;;;;;;5067107;28;20095;-63
2022/07/09 09:21:01;;;;;;;6.90;2.00;;;20.10;99.90;;;;;;5066762;28;20133;-63
2022/07/09 09:23:26;;;;;;;4.68;1.60;;;20.00;99.90;;;;;;5066553;28;20048;-64
2022/07/09 09:25:52;;;;;;;6.35;1.50;;;20.00;99.90;;;;;;5066511;28;20055;-63
2022/07/09 09:28:18;;;;;;;3.28;1.33;;;19.90;99.90;;;;;;5067478;28;20041;-62
2022/07/09 09:30:44;;;;;;;6.70;2.10;;;19.80;99.90;;;;;;5066775;28;20048;-63
2022/07/09 09:33:09;;;;;;;3.28;1.38;;;19.70;99.90;;;;;;5066429;28;20102;-63
2022/07/09 09:35:42;;;;;;;9.32;1.50;;;19.60;99.90;;;;;;5066840;28;20118;-63
2022/07/09 09:38:08;;;;;;;4.63;1.20;;;19.80;99.90;;;;;;5066429;28;20094;-63
2022/07/09 09:40:35;;;;;;;7.82;1.55;;;19.90;99.90;;;;;;5066613;28;20045;-63
2022/07/09 09:43:02;;;;;;;5.28;1.23;;;20.00;99.90;;;;;;5065302;28;20041;-63
2022/07/09 09:45:29;;;;;;;2.75;1.15;;;20.10;99.90;;;;;;5065739;28;20492;-62
2022/07/09 09:47:54;;;;;;;6.05;1.38;;;20.20;99.90;;;;;;5066418;28;20055;-63
2022/07/09 09:50:22;;;;;;;4.07;1.80;;;20.30;99.90;;;;;;5065895;28;20044;-63
2022/07/09 09:52:53;;;;;;;7.78;1.83;;;20.20;99.90;;;;;;5064079;28;20379;-63
2022/07/09 09:55:20;;;;;;;7.50;1.42;;;20.20;99.90;;;;;;5066301;28;20084;-63
2022/07/09 09:57:46;;;;;;;5.68;1.30;;;20.10;99.90;;;;;;5066192;28;20138;-63
2022/07/09 10:00:13;;;;;;;7.63;1.63;;;20.20;99.90;;;;;;5066413;28;20721;-63
2022/07/09 10:02:44;;;;;;;9.30;2.22;;;20.10;99.90;;;;;;5066102;28;20055;-63
2022/07/09 10:05:10;;;;;;;6.10;1.52;;;20.20;99.90;;;;;;5065014;28;20052;-63
2022/07/09 10:07:36;;;;;;;6.32;1.67;;;20.30;99.90;;;;;;5066113;28;20127;-63
2022/07/09 10:10:05;;;;;;;7.60;1.92;;;20.10;99.90;;;;;;5064455;28;20056;-63
2022/07/09 10:12:33;;;;;;;6.22;1.90;;;19.70;99.90;;;;;;5065528;28;20454;-62
2022/07/09 10:14:59;;;;;;;10.10;2.50;;;19.40;99.90;;;;;;5065515;28;20052;-63
2022/07/09 10:17:26;;;;;;;5.88;1.92;;;19.20;99.90;;;;;;5066259;28;20044;-62
2022/07/09 10:20:06;;;;;;;9.13;2.10;;;19.20;99.90;;;;;;5064943;28;20051;-62
2022/07/09 10:22:42;;;;;;;4.75;1.92;;;19.00;99.90;;;;;;5066111;28;20040;-63
2022/07/09 10:25:09;;;;;;;6.30;2.05;;;18.80;99.90;;;;;;5064916;28;20332;-63
2022/07/09 10:27:43;;;;;;;9.88;2.45;;;18.70;99.90;;;;;;5065955;28;20048;-63
2022/07/09 10:30:29;;;;;;;8.70;2.30;;;18.70;99.90;;;;;;5065549;28;20079;-63
2022/07/09 10:33:01;;;;;;;9.48;1.90;;;18.80;99.90;;;;;;5063539;28;20075;-63
2022/07/09 10:35:27;;;;;;;7.15;1.52;;;18.80;99.90;;;;;;5064522;28;20048;-63
2022/07/09 10:37:53;;;;;;;7.95;1.92;;;18.80;99.90;;;;;;5065390;28;20040;-63
2022/07/09 10:40:21;;;;;;;4.88;1.48;;;18.70;99.90;;;;;;5065258;28;20048;-63
2022/07/09 10:43:02;;;;;;;3.63;1.38;;;18.70;99.90;;;;;;5066074;28;20048;-63
2022/07/09 10:45:36;;;;;;;7.07;1.33;;;18.80;99.90;;;;;;5064771;28;20048;-63
2022/07/09 10:48:04;;;;;;;8.35;1.40;;;19.00;99.90;;;;;;5064813;28;20048;-62
2022/07/09 10:50:31;;;;;;;5.80;1.48;;;19.10;99.90;;;;;;5065993;28;20051;-63
2022/07/09 10:52:59;;;;;;;5.88;1.30;;;19.10;99.90;;;;;;5065207;28;20625;-64
2022/07/09 10:55:29;;;;;;;3.47;1.13;;;19.30;99.90;;;;;;5064786;28;20050;-63
2022/07/09 10:57:55;;;;;;;7.90;1.48;;;19.40;99.90;;;;;;5065166;28;20511;-63
2022/07/09 11:00:25;;;;;;;5.70;1.33;;;19.40;99.90;;;;;;5065011;28;20055;-63
2022/07/09 11:03:03;;;;;;;8.68;1.40;;;19.50;99.90;;;;;;5065373;28;20049;-63
2022/07/09 11:05:33;;;;;;;8.98;1.17;;;19.50;99.90;;;;;;5067650;28;20584;-63
2022/07/09 11:07:59;;;;;;;4.65;1.17;;;19.60;99.90;;;;;;5067199;28;20066;-62
2022/07/09 11:10:27;;;;;;;3.22;1.08;;;19.50;99.90;;;;;;5069685;28;20048;-63
2022/07/09 11:12:54;;;;;;;3.28;1.17;;;19.60;99.90;;;;;;5069375;28;20101;-63
2022/07/09 11:15:21;;;;;;;6.50;1.48;;;19.60;99.90;;;;;;5068651;28;20048;-63
2022/07/09 11:18:06;;;;;;;1.42;0.75;;;19.60;99.90;;;;;;5069638;28;20089;-63
2022/07/09 11:20:41;;;;;;;3.70;1.05;;;19.60;99.90;;;;;;5069287;28;20049;-66
2022/07/09 11:23:09;;;;;;;7.22;1.20;;;19.50;99.90;;;;;;5067017;28;20136;-65
2022/07/09 11:25:34;;;;;;;3.75;1.00;;;19.70;99.90;;;;;;5069499;28;20053;-65
2022/07/09 11:28:00;;;;;;;4.97;0.90;;;19.70;99.90;;;;;;5068918;28;20036;-65
2022/07/09 11:30:28;;;;;;;2.78;0.95;;;19.80;99.90;;;;;;5068425;28;20056;-66
2022/07/09 11:32:55;;;;;;;3.72;0.90;;;19.80;99.90;;;;;;5068977;28;20045;-66
2022/07/09 11:35:27;;;;;;;3.10;0.82;;;19.90;99.90;;;;;;5068676;28;20516;-65
2022/07/09 11:37:53;;;;;;;9.65;1.73;;;20.00;99.90;;;;;;5069532;28;20036;-65
2022/07/09 11:40:19;;;;;;;5.10;1.20;;;20.10;99.90;;;;;;5070744;28;20350;-66
2022/07/09 11:42:45;;;;;;;5.90;0.90;;;20.20;99.90;;;;;;5069536;28;20048;-65
2022/07/09 11:45:11;;;;;;;3.85;1.10;;;20.20;99.90;;;;;;5070172;28;20055;-66
2022/07/09 11:47:40;;;;;;;11.88;1.55;;;20.20;99.90;;;;;;5068880;28;20098;-65
2022/07/09 11:50:18;;;;;;;6.25;1.40;;;20.20;99.90;;;;;;5067616;28;20105;-65
2022/07/09 11:52:49;;;;;;;4.00;1.20;;;20.40;99.90;;;;;;5069471;28;20048;-66
2022/07/09 11:55:20;;;;;;;4.32;1.33;;;20.60;99.90;;;;;;5068127;28;20392;-66
2022/07/09 11:57:52;;;;;;;6.22;1.20;;;20.50;99.90;;;;;;5067169;28;20170;-66
2022/07/09 12:00:27;;;;;;;2.92;0.95;;;20.60;99.90;;;;;;5068173;28;20064;-66
2022/07/09 12:02:53;;;;;;;4.38;0.93;;;20.60;99.90;;;;;;5068546;28;20041;-65
2022/07/09 12:05:49;;;;;;;1.85;0.70;;;20.60;99.90;;;;;;5068218;28;20083;-66
2022/07/09 12:08:29;;;;;;;7.03;1.30;;;20.60;99.90;;;;;;5067987;28;20060;-66
2022/07/09 12:10:55;;;;;;;3.10;1.00;;;20.70;99.90;;;;;;5066151;28;20052;-66
2022/07/09 12:13:21;;;;;;;4.55;1.33;;;20.80;99.90;;;;;;5068423;28;20083;-66
2022/07/09 12:15:47;;;;;;;2.55;0.65;;;20.90;99.90;;;;;;5068244;28;20080;-66
2022/07/09 12:18:13;;;;;;;5.13;0.98;;;20.80;99.90;;;;;;5067036;28;20037;-65
2022/07/09 12:20:38;;;;;;;3.58;0.80;;;20.80;99.90;;;;;;5068366;28;20575;-66
2022/07/09 12:23:04;;;;;;;4.32;0.77;;;20.80;99.90;;;;;;5067868;28;20040;-65
2022/07/09 12:25:30;;;;;;;4.60;0.90;;;20.80;99.90;;;;;;5067831;28;20414;-66
2022/07/09 12:27:56;;;;;;;4.30;0.93;;;20.80;99.90;;;;;;5066518;28;20036;-66
2022/07/09 12:30:21;;;;;;;3.85;0.80;;;20.90;99.90;;;;;;5068183;28;20081;-66
2022/07/09 12:32:48;;;;;;;6.05;1.20;;;21.00;99.90;;;;;;5066511;28;20455;-65
2022/07/09 12:35:14;;;;;;;2.40;0.80;;;20.80;99.90;;;;;;5068517;28;20040;-66
2022/07/09 12:37:40;;;;;;;3.67;0.98;;;20.70;99.90;;;;;;5067784;28;20102;-66
2022/07/09 12:40:09;;;;;;;8.57;1.10;;;20.50;99.90;;;;;;5066965;28;20333;-66
2022/07/09 12:42:35;;;;;;;2.17;0.95;;;20.40;99.90;;;;;;5068109;28;20044;-66